Terminal Aerodrome Forecast
Issued by NWS

Home | Current Version | Previous Version | Text Only | Print | Product List | Glossary On
Versions: 1 2 3 4 5 6 7 8 9 10 11 12 13 14 15 16 17 18 19 20 21 22 23 24 25 26
000
FTUS42 KCAE 222000 AAA
TAFOGB
TAF AMD
KOGB 222042Z 2221/2318 36005KT 6SM -SHRA SCT050 OVC090
      TEMPO 2221/2223 5SM SHRA BKN040
     FM230200 05005KT P6SM BKN035
      TEMPO 2311/2315 BKN025=

USA.gov is the U.S. government's official web portal to all federal, state and local government web resources and services.